createdAt,value
2023-02-17T00:02:34.277Z,4.63
2023-02-17T00:07:32.085Z,4.54
2023-02-17T00:12:28.880Z,4.48
2023-02-17T00:17:26.245Z,4.35
2023-02-17T00:22:23.762Z,4.43
2023-02-17T00:27:20.379Z,4.29
2023-02-17T00:32:17.125Z,4.44
2023-02-17T00:37:13.858Z,4.59
2023-02-17T00:42:11.191Z,4.79
2023-02-17T00:47:07.829Z,5.06
2023-02-17T00:52:04.493Z,5.19
2023-02-17T00:57:03.240Z,5.12
2023-02-17T01:02:02.773Z,5.22
2023-02-17T01:06:59.467Z,5.26
2023-02-17T01:11:56.292Z,5.43
2023-02-17T01:16:54.468Z,5.56
2023-02-17T01:21:52.454Z,5.36
2023-02-17T01:26:49.224Z,5.29
2023-02-17T01:31:46.070Z,4.87
2023-02-17T01:36:42.885Z,4.74
2023-02-17T01:41:43.342Z,4.54
2023-02-17T01:46:40.854Z,4.87
2023-02-17T01:51:38.565Z,4.97
2023-02-17T01:56:36.786Z,5.22
2023-02-17T02:01:35.346Z,4.94
2023-02-17T02:06:34.522Z,4.79
2023-02-17T02:11:31.289Z,4.95
2023-02-17T02:16:32.582Z,4.97
2023-02-17T02:21:49.465Z,5.17
2023-02-17T02:27:04.989Z,5.19
2023-02-17T02:32:09.527Z,5.09
2023-02-17T02:37:09.803Z,4.83
2023-02-17T02:42:08.991Z,4.74
2023-02-17T02:47:10.414Z,4.88
2023-02-17T02:52:13.795Z,4.89
2023-02-17T02:57:16.967Z,4.89
2023-02-17T03:02:19.361Z,4.95
2023-02-17T03:07:21.027Z,4.95
2023-02-17T03:12:18.630Z,5.21
2023-02-17T03:17:15.478Z,4.99
2023-02-17T03:22:15.198Z,4.76
2023-02-17T03:27:13.080Z,4.90
2023-02-17T03:32:09.993Z,4.81
2023-02-17T03:37:06.818Z,4.66
2023-02-17T03:42:03.455Z,4.59
2023-02-17T03:47:00.829Z,4.41
2023-02-17T03:51:59.250Z,4.54
2023-02-17T03:56:55.954Z,4.82
2023-02-17T04:01:52.647Z,4.92
2023-02-17T04:06:53.194Z,4.91
2023-02-17T04:11:49.992Z,4.54
2023-02-17T04:16:46.843Z,4.51
2023-02-17T04:21:44.733Z,4.56
2023-02-17T04:26:45.274Z,4.82
2023-02-17T04:31:42.171Z,5.07
2023-02-17T04:36:42.863Z,5.03
2023-02-17T04:41:40.858Z,5.15
2023-02-17T04:46:38.230Z,5.21
2023-02-17T04:51:34.965Z,5.29
2023-02-17T04:56:34.994Z,5.35
2023-02-17T05:01:31.775Z,5.23
2023-02-17T05:06:29.051Z,5.13
2023-02-17T05:11:25.759Z,5.17
2023-02-17T05:16:22.556Z,5.14
2023-02-17T05:21:19.374Z,5.24
2023-02-17T05:26:16.882Z,5.24
2023-02-17T05:31:13.834Z,5.37
2023-02-17T05:36:11.426Z,5.35
2023-02-17T05:41:08.047Z,5.59
2023-02-17T05:46:06.232Z,5.61
2023-02-17T05:51:05.891Z,5.62
2023-02-17T05:56:02.996Z,5.76
2023-02-17T06:00:59.749Z,5.70
2023-02-17T06:05:57.358Z,5.78
2023-02-17T06:10:54.313Z,5.67
2023-02-17T06:15:51.007Z,5.80
2023-02-17T06:20:47.778Z,5.60
2023-02-17T06:25:45.848Z,5.65
2023-02-17T06:30:42.795Z,5.58
2023-02-17T06:35:47.934Z,5.75
2023-02-17T06:40:45.456Z,5.90
2023-02-17T06:45:42.251Z,5.84
2023-02-17T06:50:39.337Z,5.83
2023-02-17T06:55:37.971Z,5.93
2023-02-17T07:00:36.519Z,6.04
2023-02-17T07:05:39.476Z,6.00
2023-02-17T07:10:37.121Z,6.04
2023-02-17T07:15:34.071Z,6.15
2023-02-17T07:20:31.994Z,6.11
2023-02-17T07:25:29.019Z,5.96
2023-02-17T07:30:26.092Z,6.15
2023-02-17T07:35:30.802Z,6.13
2023-02-17T07:40:34.002Z,6.42
2023-02-17T07:45:38.151Z,6.37
2023-02-17T07:50:41.116Z,6.45
2023-02-17T08:02:25.154Z,6.37
2023-02-17T08:07:41.685Z,6.24
2023-02-17T08:13:16.668Z,6.47
2023-02-17T08:18:37.631Z,6.70
2023-02-17T08:24:26.359Z,6.71
2023-02-17T08:29:35.604Z,6.91
2023-02-17T08:36:15.497Z,6.99
2023-02-17T08:42:54.044Z,7.35
2023-02-17T08:47:09.286Z,7.37
2023-02-17T08:58:36.460Z,7.87
2023-02-17T09:04:34.571Z,8.05
2023-02-17T09:10:32.568Z,8.42
2023-02-17T09:28:50.995Z,8.83
2023-02-17T09:34:53.395Z,8.82
2023-02-17T09:46:22.411Z,9.60
2023-02-17T09:51:27.405Z,9.71
2023-02-17T09:56:30.352Z,9.92
2023-02-17T10:01:29.754Z,10.11
2023-02-17T10:06:29.791Z,10.10
2023-02-17T10:11:30.446Z,10.22
2023-02-17T10:16:34.010Z,10.37
2023-02-17T10:21:33.129Z,10.73
2023-02-17T10:26:39.566Z,10.76
2023-02-17T10:31:43.017Z,10.76
2023-02-17T10:36:52.029Z,10.96
2023-02-17T10:41:51.669Z,11.05
2023-02-17T10:46:52.016Z,11.38
2023-02-17T10:51:56.047Z,11.27
2023-02-17T10:56:55.352Z,11.31
2023-02-17T11:01:52.331Z,11.48
2023-02-17T11:06:50.066Z,11.60
2023-02-17T11:11:53.182Z,11.49
2023-02-17T11:16:54.630Z,11.59
2023-02-17T11:21:51.939Z,11.58
2023-02-17T11:26:55.917Z,11.66
2023-02-17T11:32:08.940Z,11.84
2023-02-17T11:37:21.013Z,11.98
2023-02-17T11:42:46.611Z,12.14
2023-02-17T11:48:09.929Z,12.28
2023-02-17T11:53:21.420Z,12.29
2023-02-17T11:58:28.565Z,12.43
2023-02-17T12:03:54.324Z,12.81
2023-02-17T12:09:00.154Z,12.71
2023-02-17T12:14:15.682Z,12.60
2023-02-17T12:19:36.092Z,12.89
2023-02-17T12:24:56.376Z,12.92
2023-02-17T12:30:03.916Z,13.23
2023-02-17T12:35:04.856Z,13.25
2023-02-17T12:40:02.893Z,13.17
2023-02-17T12:45:02.528Z,13.11
2023-02-17T12:50:04.045Z,13.31
2023-02-17T12:55:05.851Z,13.16
2023-02-17T13:00:04.964Z,13.24
2023-02-17T13:05:04.889Z,13.34
2023-02-17T13:10:02.192Z,13.36
2023-02-17T13:15:00.036Z,13.44
2023-02-17T13:20:03.056Z,13.34
2023-02-17T13:25:02.931Z,13.29
2023-02-17T13:30:00.498Z,13.21
2023-02-17T13:35:05.468Z,13.15
2023-02-17T13:40:23.770Z,13.25
2023-02-17T13:45:23.432Z,13.52
2023-02-17T13:50:28.033Z,13.31
2023-02-17T13:55:26.146Z,13.35
2023-02-17T14:00:26.156Z,13.48
2023-02-17T14:05:26.349Z,13.57
2023-02-17T14:10:24.424Z,13.63
2023-02-17T14:15:25.094Z,13.70
2023-02-17T14:20:25.186Z,13.52
2023-02-17T14:25:26.604Z,13.40
2023-02-17T14:30:31.291Z,13.37
2023-02-17T14:35:29.136Z,13.37
2023-02-17T14:40:27.535Z,13.29
2023-02-17T14:45:24.304Z,13.24
2023-02-17T14:50:21.796Z,13.20
2023-02-17T14:55:25.278Z,13.21
2023-02-17T15:00:22.221Z,13.20
2023-02-17T15:05:19.249Z,13.58
2023-02-17T15:10:19.123Z,13.61
2023-02-17T15:15:18.138Z,13.67
2023-02-17T15:20:31.940Z,13.71
2023-02-17T15:25:31.721Z,13.68
2023-02-17T15:30:28.651Z,13.55
2023-02-17T15:35:27.130Z,13.68
2023-02-17T15:40:24.933Z,13.51
2023-02-17T15:45:27.867Z,13.32
2023-02-17T15:50:30.580Z,13.30
2023-02-17T15:55:28.413Z,13.24
2023-02-17T16:00:30.506Z,13.27
2023-02-17T16:05:28.753Z,12.87
2023-02-17T16:10:26.947Z,13.01
2023-02-17T16:15:28.296Z,12.87
2023-02-17T16:20:44.555Z,12.92
2023-02-17T16:25:42.817Z,12.95
2023-02-17T16:30:41.348Z,12.67
2023-02-17T16:35:38.169Z,12.52
2023-02-17T16:40:46.631Z,12.43
2023-02-17T16:45:51.313Z,12.27
2023-02-17T16:51:14.444Z,12.41
2023-02-17T16:56:26.675Z,12.67
2023-02-17T17:01:25.379Z,12.50
2023-02-17T17:06:25.030Z,12.44
2023-02-17T17:11:25.579Z,12.51
2023-02-17T17:16:23.352Z,12.44
2023-02-17T17:21:21.050Z,12.22
2023-02-17T17:26:24.615Z,12.22
2023-02-17T17:31:23.594Z,12.25
2023-02-17T17:36:23.972Z,12.18
2023-02-17T17:41:23.432Z,12.03
2023-02-17T17:46:25.771Z,12.00
2023-02-17T17:51:25.543Z,11.85
2023-02-17T17:56:23.331Z,12.03
2023-02-17T18:01:20.986Z,12.11
2023-02-17T18:06:19.458Z,12.25
2023-02-17T18:11:18.582Z,12.29
2023-02-17T18:16:16.053Z,12.08
2023-02-17T18:21:35.425Z,12.14
2023-02-17T18:26:33.874Z,11.91
2023-02-17T18:31:33.788Z,11.93
2023-02-17T18:36:30.766Z,12.01
2023-02-17T18:41:28.315Z,11.71
2023-02-17T18:46:31.014Z,11.43
2023-02-17T18:51:27.810Z,11.65
2023-02-17T18:56:28.695Z,11.72
2023-02-17T19:01:27.520Z,11.73
2023-02-17T19:06:24.903Z,11.62
2023-02-17T19:11:22.280Z,11.30
2023-02-17T19:16:20.200Z,11.38
2023-02-17T19:21:17.899Z,11.36
2023-02-17T19:26:15.167Z,11.48
2023-02-17T19:31:15.514Z,11.25
2023-02-17T19:36:13.356Z,11.27
2023-02-17T19:41:11.794Z,11.18
2023-02-17T19:46:13.279Z,11.14
2023-02-17T19:51:13.612Z,11.00
2023-02-17T19:56:12.755Z,10.90
2023-02-17T20:01:10.639Z,10.64
2023-02-17T20:06:08.457Z,10.56
2023-02-17T20:11:09.364Z,10.38
2023-02-17T20:16:10.364Z,10.30
2023-02-17T20:21:08.398Z,10.02
2023-02-17T20:26:06.542Z,9.92
2023-02-17T20:31:04.226Z,9.78
2023-02-17T20:36:01.855Z,9.81
2023-02-17T20:40:58.539Z,9.84
2023-02-17T20:45:55.585Z,9.69
2023-02-17T20:50:55.273Z,9.77
2023-02-17T20:55:58.942Z,9.86
2023-02-17T21:00:55.892Z,9.89
2023-02-17T21:05:52.756Z,9.79
2023-02-17T21:10:53.586Z,9.57
2023-02-17T21:15:55.881Z,9.55
2023-02-17T21:20:52.605Z,9.74
2023-02-17T21:25:49.302Z,9.79
2023-02-17T21:30:48.826Z,9.57
2023-02-17T21:35:46.254Z,9.75
2023-02-17T21:40:43.152Z,9.99
2023-02-17T21:45:39.801Z,9.86
2023-02-17T21:50:36.362Z,9.77
2023-02-17T21:55:34.406Z,9.83
2023-02-17T22:00:31.109Z,10.00
2023-02-17T22:05:29.864Z,9.85
2023-02-17T22:10:26.455Z,9.79
2023-02-17T22:15:23.964Z,9.80
2023-02-17T22:20:21.000Z,9.71
2023-02-17T22:25:20.026Z,9.80
2023-02-17T22:30:17.390Z,9.93
2023-02-17T22:35:14.750Z,9.68
2023-02-17T22:40:14.209Z,9.99
2023-02-17T22:45:11.224Z,10.13
2023-02-17T22:50:10.658Z,10.11
2023-02-17T22:55:08.184Z,10.21
2023-02-17T23:00:05.912Z,10.30
2023-02-17T23:05:02.721Z,10.26
2023-02-17T23:09:59.255Z,10.35
2023-02-17T23:14:56.474Z,10.34
2023-02-17T23:19:53.111Z,10.21
2023-02-17T23:24:53.096Z,10.16
2023-02-17T23:29:49.791Z,10.19
2023-02-17T23:34:47.404Z,10.04
2023-02-17T23:39:45.620Z,9.92
2023-02-17T23:44:42.544Z,9.54
2023-02-17T23:49:39.278Z,9.48
2023-02-17T23:54:37.412Z,9.54
2023-02-17T23:59:37.650Z,9.41
